createdAt,value
2023-01-11T00:00:00.220Z,3.15
2023-01-11T00:02:58.237Z,3.42
2023-01-11T00:05:47.229Z,2.88
2023-01-11T00:08:27.339Z,3.20
2023-01-11T00:11:21.229Z,3.30
2023-01-11T00:14:01.270Z,3.00
2023-01-11T00:16:48.245Z,3.25
2023-01-11T00:19:35.218Z,2.92
2023-01-11T00:22:22.336Z,3.33
2023-01-11T00:25:02.216Z,3.33
2023-01-11T00:27:49.245Z,3.25
2023-01-11T00:30:29.345Z,2.90
2023-01-11T00:33:18.210Z,2.83
2023-01-11T00:35:59.304Z,3.17
2023-01-11T00:41:57.038Z,3.03
2023-01-11T00:45:02.234Z,2.97
2023-01-11T00:47:57.668Z,2.90
2023-01-11T00:50:46.228Z,2.97
2023-01-11T00:53:26.264Z,3.00
2023-01-11T00:56:13.216Z,2.88
2023-01-11T00:58:53.260Z,3.05
2023-01-11T01:01:41.279Z,2.65
2023-01-11T01:04:28.303Z,2.50
2023-01-11T01:07:08.236Z,2.60
2023-01-11T01:09:55.363Z,2.33
2023-01-11T01:12:54.220Z,2.50
2023-01-11T01:15:34.910Z,2.35
2023-01-11T01:18:21.222Z,2.30
2023-01-11T01:21:01.768Z,2.50
2023-01-11T01:23:48.223Z,2.40
2023-01-11T01:26:35.304Z,2.00
2023-01-11T01:29:15.230Z,2.20
2023-01-11T01:31:55.721Z,2.00
2023-01-11T01:34:49.264Z,2.22
2023-01-11T01:37:36.269Z,1.85
2023-01-11T01:40:17.219Z,1.70
2023-01-11T01:45:44.235Z,1.42
2023-01-11T01:48:33.219Z,1.50
2023-01-11T01:51:17.290Z,1.60
2023-01-11T01:54:08.253Z,1.60
2023-01-11T01:56:59.287Z,1.40
2023-01-11T01:59:48.245Z,1.20
2023-01-11T02:02:31.353Z,1.40
2023-01-11T02:05:20.256Z,1.30
2023-01-11T02:08:01.326Z,1.48
2023-01-11T02:13:29.288Z,1.20
2023-01-11T02:19:03.227Z,1.20
2023-01-11T02:22:23.226Z,1.17
2023-01-11T02:25:32.242Z,1.20
2023-01-11T02:28:24.366Z,1.42
2023-01-11T02:31:13.297Z,1.23
2023-01-11T02:34:19.241Z,1.10
2023-01-11T02:37:10.269Z,1.27
2023-01-11T02:40:18.239Z,1.20
2023-01-11T02:43:22.129Z,1.10
2023-01-11T02:46:19.273Z,1.10
2023-01-11T02:49:11.261Z,1.20
2023-01-11T02:52:08.223Z,1.23
2023-01-11T02:55:00.225Z,1.50
2023-01-11T02:57:49.252Z,1.60
2023-01-11T03:00:31.304Z,1.90
2023-01-11T03:03:35.220Z,1.77
2023-01-11T03:06:27.299Z,1.50
2023-01-11T03:09:51.206Z,1.60
2023-01-11T03:13:16.321Z,1.70
2023-01-11T03:16:32.247Z,2.10
2023-01-11T03:19:36.837Z,1.70
2023-01-11T03:22:45.224Z,1.60
2023-01-11T03:25:47.725Z,1.60
2023-01-11T03:29:00.212Z,2.05
2023-01-11T03:32:00.290Z,1.80
2023-01-11T03:35:02.235Z,1.60
2023-01-11T03:38:29.238Z,1.52
2023-01-11T03:41:18.321Z,1.48
2023-01-11T03:44:07.251Z,1.52
2023-01-11T03:46:54.325Z,1.30
2023-01-11T03:49:45.242Z,1.30
2023-01-11T03:52:29.301Z,1.17
2023-01-11T03:55:19.234Z,0.95
2023-01-11T03:58:01.281Z,0.90
2023-01-11T04:00:48.304Z,0.70
2023-01-11T04:03:35.232Z,0.70
2023-01-11T04:06:17.320Z,0.50
2023-01-11T04:09:04.248Z,0.60
2023-01-11T04:11:52.224Z,1.10
2023-01-11T04:14:39.238Z,1.00
2023-01-11T04:17:26.291Z,1.20
2023-01-11T04:20:06.230Z,0.90
2023-01-11T04:22:53.247Z,1.10
2023-01-11T04:25:33.273Z,1.20
2023-01-11T04:28:20.224Z,1.25
2023-01-11T04:31:00.286Z,1.58
2023-01-11T04:33:47.239Z,1.80
2023-01-11T04:36:28.695Z,1.90
2023-01-11T04:42:15.996Z,2.30
2023-01-11T04:45:02.233Z,2.15
2023-01-11T04:47:42.293Z,2.28
2023-01-11T04:50:31.267Z,2.30
2023-01-11T04:53:11.281Z,2.42
2023-01-11T04:56:00.242Z,2.38
2023-01-11T04:58:42.286Z,2.60
2023-01-11T05:01:29.336Z,2.30
2023-01-11T05:04:23.242Z,2.00
2023-01-11T05:07:10.245Z,2.30
2023-01-11T05:09:57.246Z,2.10
2023-01-11T05:15:38.373Z,2.17
2023-01-11T05:18:18.267Z,2.10
2023-01-11T05:21:06.418Z,2.13
2023-01-11T05:23:47.282Z,2.10
2023-01-11T05:26:37.321Z,1.98
2023-01-11T05:29:20.269Z,1.73
2023-01-11T05:32:00.883Z,1.77
2023-01-11T05:34:47.277Z,1.85
2023-01-11T05:40:15.297Z,1.95
2023-01-11T05:43:02.370Z,1.63
2023-01-11T05:45:44.301Z,1.90
2023-01-11T05:48:32.317Z,1.70
2023-01-11T05:51:12.254Z,1.73
2023-01-11T05:53:59.314Z,1.73
2023-01-11T05:56:40.271Z,2.20
2023-01-11T05:59:27.391Z,2.05
2023-01-11T06:02:07.426Z,1.75
2023-01-11T06:04:55.499Z,2.33
2023-01-11T06:07:35.291Z,2.10
2023-01-11T06:10:16.056Z,2.20
2023-01-11T06:13:24.267Z,1.85
2023-01-11T06:16:21.291Z,1.77
2023-01-11T06:19:08.283Z,2.20
2023-01-11T06:21:55.272Z,2.30
2023-01-11T06:24:35.317Z,2.05
2023-01-11T06:27:24.283Z,2.08
2023-01-11T06:30:04.319Z,2.10
2023-01-11T06:32:51.277Z,1.92
2023-01-11T06:35:55.269Z,1.83
2023-01-11T06:38:43.284Z,2.35
2023-01-11T06:41:23.389Z,1.73
2023-01-11T06:44:10.256Z,1.80
2023-01-11T06:46:57.271Z,2.03
2023-01-11T06:49:44.274Z,1.90
2023-01-11T06:52:24.461Z,1.77
2023-01-11T06:55:12.264Z,1.83
2023-01-11T06:57:52.323Z,1.50
2023-01-11T07:00:39.256Z,1.67
2023-01-11T07:03:33.286Z,1.73
2023-01-11T07:06:20.444Z,1.92
2023-01-11T07:09:00.263Z,1.65
2023-01-11T07:11:47.320Z,1.65
2023-01-11T07:14:28.272Z,1.65
2023-01-11T07:19:55.339Z,1.90
2023-01-11T07:22:43.262Z,1.77
2023-01-11T07:25:30.283Z,1.88
2023-01-11T07:28:10.880Z,1.77
2023-01-11T07:30:59.333Z,2.00
2023-01-11T07:33:39.745Z,1.65
2023-01-11T07:36:26.257Z,1.70
2023-01-11T07:39:07.606Z,2.47
2023-01-11T07:42:13.664Z,1.70
2023-01-11T07:45:01.347Z,1.70
2023-01-11T07:47:41.264Z,1.45
2023-01-11T07:50:28.287Z,1.60
2023-01-11T07:53:08.321Z,1.77
2023-01-11T07:55:55.267Z,1.48
2023-01-11T07:58:35.369Z,2.17
2023-01-11T08:01:22.248Z,1.98
2023-01-11T08:04:02.338Z,1.70
2023-01-11T08:06:49.273Z,1.77
2023-01-11T08:09:29.315Z,1.52
2023-01-11T08:12:34.271Z,1.95
2023-01-11T08:15:15.314Z,1.95
2023-01-11T08:20:42.361Z,1.90
2023-01-11T08:23:29.267Z,1.95
2023-01-11T08:26:09.514Z,1.58
2023-01-11T08:28:56.268Z,3.08
2023-01-11T08:31:36.318Z,1.83
2023-01-11T08:34:23.276Z,1.90
2023-01-11T08:37:12.278Z,2.05
2023-01-11T08:39:59.393Z,1.75
2023-01-11T08:42:40.287Z,1.73
2023-01-11T08:48:08.263Z,1.98
2023-01-11T08:50:48.845Z,1.63
2023-01-11T08:53:35.300Z,1.77
2023-01-11T08:56:15.769Z,1.58
2023-01-11T08:59:02.281Z,2.00
2023-01-11T09:01:42.835Z,1.40
2023-01-11T09:04:29.269Z,1.77
2023-01-11T09:07:16.272Z,2.10
2023-01-11T09:09:56.458Z,2.08
2023-01-11T09:12:43.268Z,1.90
2023-01-11T09:15:23.353Z,2.15
2023-01-11T09:18:11.279Z,2.30
2023-01-11T09:20:51.320Z,1.85
2023-01-11T09:23:38.277Z,2.40
2023-01-11T09:26:19.401Z,1.95
2023-01-11T09:31:53.277Z,2.53
2023-01-11T09:34:34.954Z,2.00
2023-01-11T09:37:21.288Z,1.85
2023-01-11T09:40:08.281Z,2.22
2023-01-11T09:45:40.278Z,2.40
2023-01-11T09:48:57.277Z,2.30
2023-01-11T09:51:46.280Z,2.22
2023-01-11T09:54:40.301Z,2.70
2023-01-11T09:58:01.317Z,2.10
2023-01-11T10:01:01.559Z,2.20
2023-01-11T10:04:06.295Z,2.15
2023-01-11T10:07:31.285Z,2.63
2023-01-11T10:18:32.087Z,2.20
2023-01-11T10:18:37.853Z,2.45
2023-01-11T10:20:41.718Z,2.17
2023-01-11T10:23:31.278Z,2.83
2023-01-11T10:26:42.342Z,1.90
2023-01-11T10:29:46.377Z,2.20
2023-01-11T10:32:58.006Z,2.10
2023-01-11T10:36:05.281Z,2.40
2023-01-11T10:39:27.092Z,2.10
2023-01-11T10:42:28.285Z,2.17
2023-01-11T10:45:25.383Z,2.40
2023-01-11T10:48:20.294Z,1.92
2023-01-11T10:51:03.436Z,2.05
2023-01-11T10:54:20.339Z,2.40
2023-01-11T10:57:13.365Z,2.08
2023-01-11T11:00:06.293Z,2.33
2023-01-11T11:03:07.307Z,2.28
2023-01-11T11:06:20.305Z,2.92
2023-01-11T11:09:16.284Z,2.33
2023-01-11T11:12:25.278Z,2.00
2023-01-11T11:15:25.211Z,2.10
2023-01-11T11:18:12.283Z,1.98
2023-01-11T11:23:41.382Z,2.22
2023-01-11T11:26:31.351Z,2.20
2023-01-11T11:29:14.299Z,2.10
2023-01-11T11:32:03.800Z,1.80
2023-01-11T11:34:43.329Z,1.77
2023-01-11T11:37:28.497Z,1.95
2023-01-11T11:40:16.296Z,2.40
2023-01-11T11:43:31.348Z,2.00
2023-01-11T11:46:34.298Z,2.15
2023-01-11T11:49:18.223Z,2.38
2023-01-11T11:52:06.308Z,1.92
2023-01-11T11:55:04.339Z,2.10
2023-01-11T11:57:49.306Z,2.83
2023-01-11T12:00:41.281Z,1.98
2023-01-11T12:03:33.277Z,2.28
2023-01-11T12:06:31.285Z,2.15
2023-01-11T12:09:25.339Z,3.00
2023-01-11T12:12:12.346Z,2.00
2023-01-11T12:15:11.302Z,1.92
2023-01-11T12:17:52.521Z,2.38
2023-01-11T12:20:42.294Z,1.85
2023-01-11T12:23:25.519Z,2.30
2023-01-11T12:26:24.291Z,2.03
2023-01-11T12:29:17.303Z,2.50
2023-01-11T12:32:16.298Z,2.17
2023-01-11T12:35:14.693Z,1.98
2023-01-11T12:38:07.303Z,2.15
2023-01-11T12:41:10.357Z,2.20
2023-01-11T12:44:14.336Z,2.22
2023-01-11T12:47:09.850Z,2.00
2023-01-11T12:50:10.308Z,2.00
2023-01-11T12:53:19.349Z,1.90
2023-01-11T12:56:24.320Z,2.22
2023-01-11T12:59:49.303Z,2.42
2023-01-11T13:02:48.396Z,1.75
2023-01-11T13:06:01.289Z,1.75
2023-01-11T13:08:53.968Z,1.73
2023-01-11T13:11:46.309Z,1.70
2023-01-11T13:14:39.419Z,2.28
2023-01-11T13:17:32.294Z,2.65
2023-01-11T13:20:24.113Z,1.73
2023-01-11T13:23:22.301Z,1.98
2023-01-11T13:26:43.322Z,1.98
2023-01-11T13:29:30.421Z,1.90
2023-01-11T13:35:24.459Z,1.95
2023-01-11T13:38:32.948Z,1.70
2023-01-11T13:41:22.352Z,2.03
2023-01-11T13:44:16.300Z,2.13
2023-01-11T13:47:09.337Z,2.08
2023-01-11T13:50:19.297Z,2.47
2023-01-11T13:53:50.377Z,2.08
2023-01-11T13:56:47.313Z,2.30
2023-01-11T13:59:36.412Z,2.00
2023-01-11T14:02:46.311Z,2.03
2023-01-11T14:05:45.334Z,2.42
2023-01-11T14:08:48.199Z,2.40
2023-01-11T14:12:14.301Z,1.73
2023-01-11T14:15:07.316Z,2.17
2023-01-11T14:18:22.301Z,2.08
2023-01-11T14:21:29.310Z,1.65
2023-01-11T14:24:18.298Z,2.17
2023-01-11T14:27:27.902Z,1.95
2023-01-11T14:30:37.300Z,2.10
2023-01-11T14:33:55.325Z,2.67
2023-01-11T14:37:10.297Z,2.10
2023-01-11T14:40:16.875Z,2.53
2023-01-11T14:43:06.305Z,2.58
2023-01-11T14:45:46.759Z,1.88
2023-01-11T14:49:14.305Z,2.05
2023-01-11T14:52:03.533Z,2.03
2023-01-11T14:55:01.323Z,2.42
2023-01-11T14:57:50.289Z,2.58
2023-01-11T15:00:37.339Z,3.10
2023-01-11T15:06:25.290Z,2.17
2023-01-11T15:09:51.356Z,2.28
2023-01-11T15:12:42.288Z,2.20
2023-01-11T15:15:54.403Z,2.20
2023-01-11T15:18:41.291Z,2.30
2023-01-11T15:21:31.315Z,2.25
2023-01-11T15:24:18.311Z,2.20
2023-01-11T15:27:14.340Z,2.10
2023-01-11T15:30:04.293Z,2.00
2023-01-11T15:32:44.393Z,2.17
2023-01-11T15:35:31.312Z,1.98
2023-01-11T15:38:14.388Z,2.08
2023-01-11T15:41:24.304Z,2.42
2023-01-11T15:44:12.350Z,2.35
2023-01-11T15:47:14.333Z,2.20
2023-01-11T15:50:19.342Z,2.20
2023-01-11T15:53:25.311Z,2.50
2023-01-11T15:56:43.416Z,1.88
2023-01-11T15:59:55.326Z,2.35
2023-01-11T16:02:59.375Z,1.95
2023-01-11T16:06:03.321Z,2.25
2023-01-11T16:09:13.297Z,1.90
2023-01-11T16:12:12.383Z,2.13
2023-01-11T16:15:02.356Z,2.40
2023-01-11T16:17:47.432Z,2.25
2023-01-11T16:20:35.585Z,1.73
2023-01-11T16:23:32.302Z,1.88
2023-01-11T16:26:25.442Z,2.30
2023-01-11T16:29:05.325Z,2.63
2023-01-11T16:32:34.136Z,1.92
2023-01-11T16:35:28.300Z,1.92
2023-01-11T16:38:23.306Z,1.90
2023-01-11T16:41:06.711Z,2.00
2023-01-11T16:43:59.286Z,2.05
2023-01-11T16:47:11.488Z,2.00
2023-01-11T16:50:26.303Z,2.38
2023-01-11T16:53:16.317Z,2.03
2023-01-11T16:56:09.316Z,2.20
2023-01-11T16:58:49.380Z,1.67
2023-01-11T17:02:02.352Z,1.70
2023-01-11T17:04:45.418Z,1.85
2023-01-11T17:07:36.352Z,2.28
2023-01-11T17:10:34.387Z,1.52
2023-01-11T17:13:55.315Z,2.47
2023-01-11T17:17:01.497Z,2.10
2023-01-11T17:19:47.926Z,2.13
2023-01-11T17:22:37.304Z,1.80
2023-01-11T17:25:20.628Z,1.70
2023-01-11T17:28:16.291Z,1.80
2023-01-11T17:30:57.202Z,2.22
2023-01-11T17:36:28.415Z,2.75
2023-01-11T17:42:17.710Z,2.40
2023-01-11T17:45:22.360Z,1.90
2023-01-11T17:48:14.749Z,1.80
2023-01-11T17:51:07.344Z,1.95
2023-01-11T17:53:55.369Z,1.92
2023-01-11T17:56:44.330Z,2.28
2023-01-11T17:59:27.313Z,1.77
2023-01-11T18:02:25.415Z,1.90
2023-01-11T18:05:19.314Z,2.25
2023-01-11T18:08:06.291Z,1.73
2023-01-11T18:10:54.320Z,2.08
2023-01-11T18:13:41.297Z,2.03
2023-01-11T18:16:25.594Z,1.80
2023-01-11T18:19:30.323Z,1.92
2023-01-11T18:22:10.383Z,1.83
2023-01-11T18:25:02.316Z,1.80
2023-01-11T18:27:53.328Z,2.10
2023-01-11T18:30:33.762Z,1.95
2023-01-11T18:33:30.314Z,1.98
2023-01-11T18:36:29.312Z,2.03
2023-01-11T18:39:22.323Z,2.08
2023-01-11T18:42:07.416Z,1.92
2023-01-11T18:44:57.287Z,2.55
2023-01-11T18:47:37.860Z,2.50
2023-01-11T18:50:27.316Z,2.03
2023-01-11T18:53:11.574Z,2.40
2023-01-11T18:55:58.316Z,2.35
2023-01-11T18:58:45.450Z,1.95
2023-01-11T19:01:25.356Z,2.15
2023-01-11T19:04:19.295Z,2.05
2023-01-11T19:07:06.305Z,2.10
2023-01-11T19:09:46.405Z,2.08
2023-01-11T19:12:33.302Z,1.83
2023-01-11T19:15:21.305Z,1.83
2023-01-11T19:18:09.311Z,1.80
2023-01-11T19:20:50.378Z,1.70
2023-01-11T19:23:37.316Z,1.85
2023-01-11T19:26:17.462Z,1.58
2023-01-11T19:29:04.314Z,1.65
2023-01-11T19:31:44.463Z,2.00
2023-01-11T19:34:31.331Z,2.17
2023-01-11T19:37:12.395Z,2.50
2023-01-11T19:39:59.317Z,1.75
2023-01-11T19:42:40.119Z,1.63
2023-01-11T19:45:26.304Z,1.88
2023-01-11T19:48:13.318Z,1.95
2023-01-11T19:51:12.359Z,1.88
2023-01-11T19:53:53.360Z,1.77
2023-01-11T19:59:22.303Z,1.95
2023-01-11T20:02:02.876Z,1.45
2023-01-11T20:04:49.312Z,1.60
2023-01-11T20:07:36.368Z,1.85
2023-01-11T20:10:16.291Z,1.85
2023-01-11T20:12:56.829Z,1.73
2023-01-11T20:15:43.364Z,1.90
2023-01-11T20:18:30.340Z,1.88
2023-01-11T20:21:11.345Z,1.70
2023-01-11T20:26:40.384Z,1.77
2023-01-11T20:29:20.846Z,1.42
2023-01-11T20:32:28.144Z,2.08
2023-01-11T20:35:08.550Z,1.77
2023-01-11T20:37:55.288Z,1.75
2023-01-11T20:40:44.422Z,1.98
2023-01-11T20:43:24.315Z,2.17
2023-01-11T20:46:06.195Z,1.77
2023-01-11T20:48:53.307Z,1.98
2023-01-11T20:51:41.443Z,1.95
2023-01-11T20:54:22.317Z,2.05
2023-01-11T20:57:12.491Z,2.33
2023-01-11T21:00:01.308Z,2.17
2023-01-11T21:02:41.820Z,2.17
2023-01-11T21:05:28.337Z,1.85
2023-01-11T21:08:08.777Z,1.95
2023-01-11T21:10:55.309Z,2.45
2023-01-11T21:13:42.400Z,2.10
2023-01-11T21:16:23.326Z,1.98
2023-01-11T21:19:04.822Z,2.15
2023-01-11T21:21:51.307Z,1.98
2023-01-11T21:24:31.843Z,1.58
2023-01-11T21:27:19.376Z,2.30
2023-01-11T21:30:06.297Z,2.00
2023-01-11T21:32:46.356Z,1.75
2023-01-11T21:35:33.315Z,1.95
2023-01-11T21:38:13.440Z,1.85
2023-01-11T21:41:00.308Z,1.80
2023-01-11T21:43:40.445Z,1.60
2023-01-11T21:46:27.433Z,2.05
2023-01-11T21:49:07.388Z,1.88
2023-01-11T21:51:54.332Z,1.50
2023-01-11T21:54:34.416Z,2.10
2023-01-11T21:57:21.323Z,1.80
2023-01-11T22:00:01.361Z,2.10
2023-01-11T22:02:55.308Z,1.67
2023-01-11T22:05:49.305Z,2.10
2023-01-11T22:08:36.306Z,1.85
2023-01-11T22:11:17.466Z,2.10
2023-01-11T22:14:04.312Z,2.03
2023-01-11T22:16:45.447Z,1.88
2023-01-11T22:19:32.323Z,2.08
2023-01-11T22:22:12.350Z,2.38
2023-01-11T22:24:59.309Z,1.73
2023-01-11T22:27:39.643Z,2.05
2023-01-11T22:30:33.316Z,1.85
2023-01-11T22:33:13.838Z,2.00
2023-01-11T22:36:11.330Z,1.80
2023-01-11T22:38:52.522Z,2.08
2023-01-11T22:41:39.301Z,1.83
2023-01-11T22:44:26.397Z,2.03
2023-01-11T22:47:06.325Z,1.67
2023-01-11T22:49:47.889Z,1.98
2023-01-11T22:52:35.326Z,2.08
2023-01-11T22:55:22.374Z,1.80
2023-01-11T22:58:03.314Z,2.40
2023-01-11T23:00:43.834Z,1.70
2023-01-11T23:03:30.416Z,1.77
2023-01-11T23:06:18.382Z,1.85
2023-01-11T23:08:59.356Z,2.00
2023-01-11T23:14:45.338Z,1.70
2023-01-11T23:17:25.793Z,1.88
2023-01-11T23:20:12.300Z,1.70
2023-01-11T23:22:59.385Z,1.98
2023-01-11T23:25:39.310Z,1.95
2023-01-11T23:28:29.759Z,2.00
2023-01-11T23:31:21.378Z,1.80
2023-01-11T23:34:10.304Z,2.50
2023-01-11T23:36:51.374Z,2.20
2023-01-11T23:39:39.321Z,1.80
2023-01-11T23:42:28.715Z,2.10
2023-01-11T23:45:16.306Z,2.35
2023-01-11T23:47:56.373Z,2.42
2023-01-11T23:50:43.314Z,2.10
2023-01-11T23:53:23.429Z,2.40
2023-01-11T23:56:17.336Z,2.20
2023-01-11T23:59:05.408Z,2.17
